sensor_id;sensor_type;location;lat;lon;timestamp;P1;durP1;ratioP1;P2;durP2;ratioP2
67828;SDS011;54626;45.436;10.942;2023-04-24T00:00:23;1.50;;;1.27;;
67828;SDS011;54626;45.436;10.942;2023-04-24T00:02:50;1.00;;;0.90;;
67828;SDS011;54626;45.436;10.942;2023-04-24T00:05:19;0.25;;;0.25;;
67828;SDS011;54626;45.436;10.942;2023-04-24T00:07:48;0.55;;;0.55;;
67828;SDS011;54626;45.436;10.942;2023-04-24T00:10:18;1.50;;;0.77;;
67828;SDS011;54626;45.436;10.942;2023-04-24T00:12:45;1.88;;;0.88;;
67828;SDS011;54626;45.436;10.942;2023-04-24T00:15:14;1.42;;;0.63;;
67828;SDS011;54626;45.436;10.942;2023-04-24T00:17:40;3.20;;;1.55;;
67828;SDS011;54626;45.436;10.942;2023-04-24T00:20:07;1.15;;;0.57;;
67828;SDS011;54626;45.436;10.942;2023-04-24T00:22:38;1.73;;;1.35;;
67828;SDS011;54626;45.436;10.942;2023-04-24T00:25:08;2.28;;;0.95;;
67828;SDS011;54626;45.436;10.942;2023-04-24T00:27:34;2.17;;;0.82;;
67828;SDS011;54626;45.436;10.942;2023-04-24T00:30:03;1.02;;;0.45;;
67828;SDS011;54626;45.436;10.942;2023-04-24T00:32:30;1.20;;;0.70;;
67828;SDS011;54626;45.436;10.942;2023-04-24T00:35:01;1.38;;;0.98;;
67828;SDS011;54626;45.436;10.942;2023-04-24T00:37:28;1.60;;;1.35;;
67828;SDS011;54626;45.436;10.942;2023-04-24T00:39:54;1.55;;;0.75;;
67828;SDS011;54626;45.436;10.942;2023-04-24T00:42:24;1.20;;;0.77;;
67828;SDS011;54626;45.436;10.942;2023-04-24T00:44:51;2.58;;;1.25;;
67828;SDS011;54626;45.436;10.942;2023-04-24T00:47:19;1.55;;;0.55;;
67828;SDS011;54626;45.436;10.942;2023-04-24T00:49:46;1.00;;;0.43;;
67828;SDS011;54626;45.436;10.942;2023-04-24T00:52:14;0.85;;;0.57;;
67828;SDS011;54626;45.436;10.942;2023-04-24T00:54:46;0.85;;;0.32;;
67828;SDS011;54626;45.436;10.942;2023-04-24T00:57:13;0.68;;;0.40;;
67828;SDS011;54626;45.436;10.942;2023-04-24T00:59:41;2.40;;;2.10;;
67828;SDS011;54626;45.436;10.942;2023-04-24T01:02:09;0.95;;;0.90;;
67828;SDS011;54626;45.436;10.942;2023-04-24T01:04:42;1.42;;;1.10;;
67828;SDS011;54626;45.436;10.942;2023-04-24T01:07:08;1.15;;;0.88;;
67828;SDS011;54626;45.436;10.942;2023-04-24T01:09:40;2.63;;;1.25;;
67828;SDS011;54626;45.436;10.942;2023-04-24T01:12:11;0.98;;;0.95;;
67828;SDS011;54626;45.436;10.942;2023-04-24T01:14:40;2.35;;;1.00;;
67828;SDS011;54626;45.436;10.942;2023-04-24T01:17:06;2.40;;;1.08;;
67828;SDS011;54626;45.436;10.942;2023-04-24T01:19:33;0.73;;;0.60;;
67828;SDS011;54626;45.436;10.942;2023-04-24T01:22:03;1.52;;;1.42;;
67828;SDS011;54626;45.436;10.942;2023-04-24T01:24:30;1.58;;;1.00;;
67828;SDS011;54626;45.436;10.942;2023-04-24T01:26:56;1.00;;;0.90;;
67828;SDS011;54626;45.436;10.942;2023-04-24T01:29:23;2.65;;;1.52;;
67828;SDS011;54626;45.436;10.942;2023-04-24T01:31:52;1.38;;;0.40;;
67828;SDS011;54626;45.436;10.942;2023-04-24T01:34:19;3.85;;;1.83;;
67828;SDS011;54626;45.436;10.942;2023-04-24T01:36:46;0.90;;;0.90;;
67828;SDS011;54626;45.436;10.942;2023-04-24T01:39:14;1.02;;;0.93;;
67828;SDS011;54626;45.436;10.942;2023-04-24T01:41:42;2.38;;;1.17;;
67828;SDS011;54626;45.436;10.942;2023-04-24T01:44:08;2.17;;;1.05;;
67828;SDS011;54626;45.436;10.942;2023-04-24T01:46:40;4.50;;;1.90;;
67828;SDS011;54626;45.436;10.942;2023-04-24T01:49:07;1.83;;;0.85;;
67828;SDS011;54626;45.436;10.942;2023-04-24T01:51:34;1.10;;;0.77;;
67828;SDS011;54626;45.436;10.942;2023-04-24T01:54:01;0.73;;;0.73;;
67828;SDS011;54626;45.436;10.942;2023-04-24T01:56:35;0.60;;;0.32;;
67828;SDS011;54626;45.436;10.942;2023-04-24T01:59:02;1.58;;;1.48;;
67828;SDS011;54626;45.436;10.942;2023-04-24T02:01:33;3.08;;;1.40;;
67828;SDS011;54626;45.436;10.942;2023-04-24T02:04:02;3.60;;;1.13;;
67828;SDS011;54626;45.436;10.942;2023-04-24T02:06:29;3.15;;;1.67;;
67828;SDS011;54626;45.436;10.942;2023-04-24T02:08:57;1.13;;;1.00;;
67828;SDS011;54626;45.436;10.942;2023-04-24T02:11:27;3.15;;;2.85;;
67828;SDS011;54626;45.436;10.942;2023-04-24T02:13:53;3.47;;;1.75;;
67828;SDS011;54626;45.436;10.942;2023-04-24T02:16:19;2.75;;;1.95;;
67828;SDS011;54626;45.436;10.942;2023-04-24T02:18:46;2.67;;;2.17;;
67828;SDS011;54626;45.436;10.942;2023-04-24T02:21:15;5.53;;;2.08;;
67828;SDS011;54626;45.436;10.942;2023-04-24T02:23:51;1.98;;;1.63;;
67828;SDS011;54626;45.436;10.942;2023-04-24T02:26:17;4.65;;;2.15;;
67828;SDS011;54626;45.436;10.942;2023-04-24T02:28:44;2.38;;;1.58;;
67828;SDS011;54626;45.436;10.942;2023-04-24T02:31:11;5.13;;;2.30;;
67828;SDS011;54626;45.436;10.942;2023-04-24T02:33:37;4.88;;;2.72;;
67828;SDS011;54626;45.436;10.942;2023-04-24T02:36:03;5.55;;;2.80;;
67828;SDS011;54626;45.436;10.942;2023-04-24T02:38:30;5.00;;;2.28;;
67828;SDS011;54626;45.436;10.942;2023-04-24T02:40:56;2.10;;;1.25;;
67828;SDS011;54626;45.436;10.942;2023-04-24T02:43:23;2.03;;;1.33;;
67828;SDS011;54626;45.436;10.942;2023-04-24T02:45:50;2.63;;;1.45;;
67828;SDS011;54626;45.436;10.942;2023-04-24T02:48:17;1.63;;;1.13;;
67828;SDS011;54626;45.436;10.942;2023-04-24T02:50:46;2.78;;;1.65;;
67828;SDS011;54626;45.436;10.942;2023-04-24T02:53:16;4.22;;;2.42;;
67828;SDS011;54626;45.436;10.942;2023-04-24T02:55:43;8.38;;;3.15;;
67828;SDS011;54626;45.436;10.942;2023-04-24T02:58:12;8.20;;;1.88;;
67828;SDS011;54626;45.436;10.942;2023-04-24T03:00:39;4.15;;;1.83;;
67828;SDS011;54626;45.436;10.942;2023-04-24T03:03:05;4.13;;;1.90;;
67828;SDS011;54626;45.436;10.942;2023-04-24T03:05:33;4.93;;;1.88;;
67828;SDS011;54626;45.436;10.942;2023-04-24T03:07:59;2.35;;;2.15;;
67828;SDS011;54626;45.436;10.942;2023-04-24T03:10:26;3.90;;;1.92;;
67828;SDS011;54626;45.436;10.942;2023-04-24T03:12:52;2.03;;;1.77;;
67828;SDS011;54626;45.436;10.942;2023-04-24T03:15:21;4.97;;;2.40;;
67828;SDS011;54626;45.436;10.942;2023-04-24T03:17:47;3.58;;;2.85;;
67828;SDS011;54626;45.436;10.942;2023-04-24T03:20:15;3.50;;;2.35;;
67828;SDS011;54626;45.436;10.942;2023-04-24T03:22:42;4.50;;;2.45;;
67828;SDS011;54626;45.436;10.942;2023-04-24T03:25:08;4.20;;;3.25;;
67828;SDS011;54626;45.436;10.942;2023-04-24T03:27:37;2.63;;;1.45;;
67828;SDS011;54626;45.436;10.942;2023-04-24T03:30:07;3.42;;;2.25;;
67828;SDS011;54626;45.436;10.942;2023-04-24T03:32:36;6.50;;;3.33;;
67828;SDS011;54626;45.436;10.942;2023-04-24T03:35:06;2.03;;;0.70;;
67828;SDS011;54626;45.436;10.942;2023-04-24T03:37:36;2.90;;;1.35;;
67828;SDS011;54626;45.436;10.942;2023-04-24T03:40:02;1.88;;;1.77;;
67828;SDS011;54626;45.436;10.942;2023-04-24T03:42:29;4.72;;;1.27;;
67828;SDS011;54626;45.436;10.942;2023-04-24T03:44:56;4.88;;;1.70;;
67828;SDS011;54626;45.436;10.942;2023-04-24T03:47:24;6.25;;;1.52;;
67828;SDS011;54626;45.436;10.942;2023-04-24T03:49:51;1.23;;;0.90;;
67828;SDS011;54626;45.436;10.942;2023-04-24T03:52:18;1.33;;;1.23;;
67828;SDS011;54626;45.436;10.942;2023-04-24T03:54:45;3.05;;;1.67;;
67828;SDS011;54626;45.436;10.942;2023-04-24T03:57:11;1.95;;;1.50;;
67828;SDS011;54626;45.436;10.942;2023-04-24T03:59:38;1.63;;;1.52;;
67828;SDS011;54626;45.436;10.942;2023-04-24T04:02:04;4.25;;;2.70;;
67828;SDS011;54626;45.436;10.942;2023-04-24T04:04:31;2.42;;;1.50;;
67828;SDS011;54626;45.436;10.942;2023-04-24T04:06:58;3.25;;;2.25;;
67828;SDS011;54626;45.436;10.942;2023-04-24T04:09:27;3.88;;;1.92;;
67828;SDS011;54626;45.436;10.942;2023-04-24T04:11:56;4.68;;;1.15;;
67828;SDS011;54626;45.436;10.942;2023-04-24T04:14:22;3.58;;;1.48;;
67828;SDS011;54626;45.436;10.942;2023-04-24T04:16:49;0.82;;;0.65;;
67828;SDS011;54626;45.436;10.942;2023-04-24T04:19:20;4.72;;;2.95;;
67828;SDS011;54626;45.436;10.942;2023-04-24T04:21:46;1.17;;;0.77;;
67828;SDS011;54626;45.436;10.942;2023-04-24T04:24:20;3.92;;;1.80;;
67828;SDS011;54626;45.436;10.942;2023-04-24T04:26:48;2.55;;;2.03;;
67828;SDS011;54626;45.436;10.942;2023-04-24T04:29:18;7.10;;;2.05;;
67828;SDS011;54626;45.436;10.942;2023-04-24T04:31:44;3.88;;;2.53;;
67828;SDS011;54626;45.436;10.942;2023-04-24T04:34:11;8.85;;;2.63;;
67828;SDS011;54626;45.436;10.942;2023-04-24T04:36:38;3.65;;;1.90;;
67828;SDS011;54626;45.436;10.942;2023-04-24T04:39:06;3.50;;;2.83;;
67828;SDS011;54626;45.436;10.942;2023-04-24T04:41:33;4.28;;;2.15;;
67828;SDS011;54626;45.436;10.942;2023-04-24T04:44:08;4.22;;;2.10;;
67828;SDS011;54626;45.436;10.942;2023-04-24T04:46:36;3.47;;;1.30;;
67828;SDS011;54626;45.436;10.942;2023-04-24T04:49:03;4.43;;;3.50;;
67828;SDS011;54626;45.436;10.942;2023-04-24T04:51:30;5.43;;;3.03;;
67828;SDS011;54626;45.436;10.942;2023-04-24T04:53:59;6.45;;;3.60;;
67828;SDS011;54626;45.436;10.942;2023-04-24T04:56:26;6.93;;;2.15;;
67828;SDS011;54626;45.436;10.942;2023-04-24T04:58:56;3.47;;;1.80;;
67828;SDS011;54626;45.436;10.942;2023-04-24T05:01:23;2.85;;;1.25;;
67828;SDS011;54626;45.436;10.942;2023-04-24T05:03:50;3.30;;;1.77;;
67828;SDS011;54626;45.436;10.942;2023-04-24T05:06:17;5.45;;;2.08;;
67828;SDS011;54626;45.436;10.942;2023-04-24T05:08:43;3.17;;;1.73;;
67828;SDS011;54626;45.436;10.942;2023-04-24T05:11:10;5.78;;;2.50;;
67828;SDS011;54626;45.436;10.942;2023-04-24T05:13:36;2.65;;;2.38;;
67828;SDS011;54626;45.436;10.942;2023-04-24T05:16:06;6.53;;;2.38;;
67828;SDS011;54626;45.436;10.942;2023-04-24T05:18:33;5.68;;;1.63;;
67828;SDS011;54626;45.436;10.942;2023-04-24T05:20:59;2.17;;;1.73;;
67828;SDS011;54626;45.436;10.942;2023-04-24T05:23:27;3.83;;;3.25;;
67828;SDS011;54626;45.436;10.942;2023-04-24T05:25:53;3.03;;;1.50;;
67828;SDS011;54626;45.436;10.942;2023-04-24T05:28:20;2.70;;;1.38;;
67828;SDS011;54626;45.436;10.942;2023-04-24T05:30:47;2.13;;;1.67;;
67828;SDS011;54626;45.436;10.942;2023-04-24T05:33:13;1.83;;;1.65;;
67828;SDS011;54626;45.436;10.942;2023-04-24T05:35:41;1.83;;;1.17;;
67828;SDS011;54626;45.436;10.942;2023-04-24T05:38:13;6.68;;;1.23;;
67828;SDS011;54626;45.436;10.942;2023-04-24T05:40:46;0.52;;;0.45;;
67828;SDS011;54626;45.436;10.942;2023-04-24T05:43:12;1.58;;;0.63;;
67828;SDS011;54626;45.436;10.942;2023-04-24T05:45:40;0.50;;;0.50;;
67828;SDS011;54626;45.436;10.942;2023-04-24T05:48:07;0.73;;;0.60;;
67828;SDS011;54626;45.436;10.942;2023-04-24T05:50:33;0.40;;;0.40;;
67828;SDS011;54626;45.436;10.942;2023-04-24T05:53:02;0.20;;;0.20;;
67828;SDS011;54626;45.436;10.942;2023-04-24T05:55:33;0.38;;;0.38;;
67828;SDS011;54626;45.436;10.942;2023-04-24T05:57:59;0.30;;;0.20;;
67828;SDS011;54626;45.436;10.942;2023-04-24T06:00:26;0.25;;;0.25;;
67828;SDS011;54626;45.436;10.942;2023-04-24T06:02:53;0.38;;;0.32;;
67828;SDS011;54626;45.436;10.942;2023-04-24T06:05:20;0.10;;;0.10;;
67828;SDS011;54626;45.436;10.942;2023-04-24T06:07:47;1.35;;;0.13;;
67828;SDS011;54626;45.436;10.942;2023-04-24T06:10:14;0.63;;;0.63;;
67828;SDS011;54626;45.436;10.942;2023-04-24T06:12:43;0.00;;;0.00;;
67828;SDS011;54626;45.436;10.942;2023-04-24T06:15:09;1.05;;;0.40;;
67828;SDS011;54626;45.436;10.942;2023-04-24T06:17:36;0.63;;;0.40;;
67828;SDS011;54626;45.436;10.942;2023-04-24T06:20:08;0.20;;;0.20;;
67828;SDS011;54626;45.436;10.942;2023-04-24T06:22:37;0.20;;;0.13;;
67828;SDS011;54626;45.436;10.942;2023-04-24T06:25:12;0.90;;;0.30;;
67828;SDS011;54626;45.436;10.942;2023-04-24T06:27:38;0.90;;;0.47;;
67828;SDS011;54626;45.436;10.942;2023-04-24T06:30:05;0.08;;;0.08;;
67828;SDS011;54626;45.436;10.942;2023-04-24T06:32:32;1.27;;;1.17;;
67828;SDS011;54626;45.436;10.942;2023-04-24T06:34:58;6.85;;;0.50;;
67828;SDS011;54626;45.436;10.942;2023-04-24T06:37:25;0.00;;;0.00;;
67828;SDS011;54626;45.436;10.942;2023-04-24T06:39:52;0.05;;;0.05;;
67828;SDS011;54626;45.436;10.942;2023-04-24T06:42:18;0.63;;;0.57;;
67828;SDS011;54626;45.436;10.942;2023-04-24T06:44:47;0.40;;;0.32;;
67828;SDS011;54626;45.436;10.942;2023-04-24T06:47:13;0.32;;;0.32;;
67828;SDS011;54626;45.436;10.942;2023-04-24T06:49:41;2.08;;;0.50;;
67828;SDS011;54626;45.436;10.942;2023-04-24T06:52:09;0.05;;;0.05;;
67828;SDS011;54626;45.436;10.942;2023-04-24T06:54:35;0.65;;;0.15;;
67828;SDS011;54626;45.436;10.942;2023-04-24T06:57:02;0.20;;;0.20;;
67828;SDS011;54626;45.436;10.942;2023-04-24T06:59:28;0.40;;;0.32;;
67828;SDS011;54626;45.436;10.942;2023-04-24T07:01:57;0.82;;;0.77;;
67828;SDS011;54626;45.436;10.942;2023-04-24T07:04:26;0.13;;;0.13;;
67828;SDS011;54626;45.436;10.942;2023-04-24T07:06:52;0.10;;;0.10;;
67828;SDS011;54626;45.436;10.942;2023-04-24T07:09:22;0.00;;;0.00;;
67828;SDS011;54626;45.436;10.942;2023-04-24T07:11:50;0.28;;;0.00;;
67828;SDS011;54626;45.436;10.942;2023-04-24T07:14:20;0.00;;;0.00;;
67828;SDS011;54626;45.436;10.942;2023-04-24T07:16:47;0.10;;;0.10;;
67828;SDS011;54626;45.436;10.942;2023-04-24T07:19:14;0.00;;;0.00;;
67828;SDS011;54626;45.436;10.942;2023-04-24T07:21:43;0.00;;;0.00;;
67828;SDS011;54626;45.436;10.942;2023-04-24T07:24:09;0.00;;;0.00;;
67828;SDS011;54626;45.436;10.942;2023-04-24T07:26:37;0.90;;;0.10;;
67828;SDS011;54626;45.436;10.942;2023-04-24T07:29:05;0.00;;;0.00;;
67828;SDS011;54626;45.436;10.942;2023-04-24T07:31:32;0.00;;;0.00;;
67828;SDS011;54626;45.436;10.942;2023-04-24T07:33:59;0.00;;;0.00;;
67828;SDS011;54626;45.436;10.942;2023-04-24T07:36:34;0.25;;;0.13;;
67828;SDS011;54626;45.436;10.942;2023-04-24T07:39:02;0.00;;;0.00;;
67828;SDS011;54626;45.436;10.942;2023-04-24T07:41:28;0.00;;;0.00;;
67828;SDS011;54626;45.436;10.942;2023-04-24T07:43:55;0.00;;;0.00;;
67828;SDS011;54626;45.436;10.942;2023-04-24T07:46:24;0.00;;;0.00;;
67828;SDS011;54626;45.436;10.942;2023-04-24T07:48:54;0.10;;;0.10;;
67828;SDS011;54626;45.436;10.942;2023-04-24T07:51:37;0.20;;;0.10;;
67828;SDS011;54626;45.436;10.942;2023-04-24T07:54:05;0.03;;;0.03;;
67828;SDS011;54626;45.436;10.942;2023-04-24T07:56:32;0.30;;;0.20;;
67828;SDS011;54626;45.436;10.942;2023-04-24T07:58:59;0.00;;;0.00;;
67828;SDS011;54626;45.436;10.942;2023-04-24T08:01:27;0.00;;;0.00;;
67828;SDS011;54626;45.436;10.942;2023-04-24T08:03:53;0.00;;;0.00;;
67828;SDS011;54626;45.436;10.942;2023-04-24T08:06:21;0.00;;;0.00;;
67828;SDS011;54626;45.436;10.942;2023-04-24T08:08:47;0.00;;;0.00;;
67828;SDS011;54626;45.436;10.942;2023-04-24T08:11:17;0.00;;;0.00;;
67828;SDS011;54626;45.436;10.942;2023-04-24T08:13:43;0.00;;;0.00;;
67828;SDS011;54626;45.436;10.942;2023-04-24T08:16:10;0.00;;;0.00;;
67828;SDS011;54626;45.436;10.942;2023-04-24T08:18:36;0.00;;;0.00;;
67828;SDS011;54626;45.436;10.942;2023-04-24T08:21:03;0.00;;;0.00;;
67828;SDS011;54626;45.436;10.942;2023-04-24T08:23:32;0.00;;;0.00;;
67828;SDS011;54626;45.436;10.942;2023-04-24T08:25:59;0.00;;;0.00;;
67828;SDS011;54626;45.436;10.942;2023-04-24T08:28:27;0.00;;;0.00;;
67828;SDS011;54626;45.436;10.942;2023-04-24T08:30:53;0.00;;;0.00;;
67828;SDS011;54626;45.436;10.942;2023-04-24T08:33:24;0.00;;;0.00;;
67828;SDS011;54626;45.436;10.942;2023-04-24T08:35:52;0.00;;;0.00;;
67828;SDS011;54626;45.436;10.942;2023-04-24T08:38:19;0.22;;;0.15;;
67828;SDS011;54626;45.436;10.942;2023-04-24T08:40:47;0.00;;;0.00;;
67828;SDS011;54626;45.436;10.942;2023-04-24T08:43:15;0.00;;;0.00;;
67828;SDS011;54626;45.436;10.942;2023-04-24T08:45:42;0.52;;;0.25;;
67828;SDS011;54626;45.436;10.942;2023-04-24T08:48:09;0.00;;;0.00;;
67828;SDS011;54626;45.436;10.942;2023-04-24T08:50:57;0.00;;;0.00;;
67828;SDS011;54626;45.436;10.942;2023-04-24T08:53:24;0.43;;;0.10;;
67828;SDS011;54626;45.436;10.942;2023-04-24T08:55:51;0.00;;;0.00;;
67828;SDS011;54626;45.436;10.942;2023-04-24T08:58:22;0.00;;;0.00;;
67828;SDS011;54626;45.436;10.942;2023-04-24T09:00:54;0.28;;;0.20;;
67828;SDS011;54626;45.436;10.942;2023-04-24T09:03:27;0.10;;;0.10;;
67828;SDS011;54626;45.436;10.942;2023-04-24T09:05:58;0.00;;;0.00;;
67828;SDS011;54626;45.436;10.942;2023-04-24T09:08:28;4.72;;;0.10;;
67828;SDS011;54626;45.436;10.942;2023-04-24T09:10:57;0.60;;;0.25;;
67828;SDS011;54626;45.436;10.942;2023-04-24T09:13:25;0.05;;;0.05;;
67828;SDS011;54626;45.436;10.942;2023-04-24T09:15:52;0.40;;;0.10;;
67828;SDS011;54626;45.436;10.942;2023-04-24T09:18:20;0.00;;;0.00;;
67828;SDS011;54626;45.436;10.942;2023-04-24T09:23:41;0.00;;;0.00;;
67828;SDS011;54626;45.436;10.942;2023-04-24T09:26:09;0.15;;;0.05;;
67828;SDS011;54626;45.436;10.942;2023-04-24T09:28:37;0.17;;;0.13;;
67828;SDS011;54626;45.436;10.942;2023-04-24T09:31:11;0.00;;;0.00;;
67828;SDS011;54626;45.436;10.942;2023-04-24T09:33:50;0.00;;;0.00;;
67828;SDS011;54626;45.436;10.942;2023-04-24T09:36:26;0.00;;;0.00;;
67828;SDS011;54626;45.436;10.942;2023-04-24T09:38:57;0.00;;;0.00;;
67828;SDS011;54626;45.436;10.942;2023-04-24T09:41:24;0.10;;;0.10;;
67828;SDS011;54626;45.436;10.942;2023-04-24T09:43:53;0.10;;;0.10;;
67828;SDS011;54626;45.436;10.942;2023-04-24T09:46:20;0.00;;;0.00;;
67828;SDS011;54626;45.436;10.942;2023-04-24T09:48:48;0.40;;;0.30;;
67828;SDS011;54626;45.436;10.942;2023-04-24T09:51:16;0.35;;;0.35;;
67828;SDS011;54626;45.436;10.942;2023-04-24T09:53:46;0.00;;;0.00;;
67828;SDS011;54626;45.436;10.942;2023-04-24T09:56:13;0.35;;;0.20;;
67828;SDS011;54626;45.436;10.942;2023-04-24T09:58:39;0.30;;;0.17;;
67828;SDS011;54626;45.436;10.942;2023-04-24T10:01:06;0.17;;;0.17;;
67828;SDS011;54626;45.436;10.942;2023-04-24T10:03:35;0.05;;;0.05;;
67828;SDS011;54626;45.436;10.942;2023-04-24T10:06:02;0.00;;;0.00;;
67828;SDS011;54626;45.436;10.942;2023-04-24T10:08:35;0.00;;;0.00;;
67828;SDS011;54626;45.436;10.942;2023-04-24T10:11:03;0.15;;;0.10;;
67828;SDS011;54626;45.436;10.942;2023-04-24T10:13:30;0.63;;;0.20;;
67828;SDS011;54626;45.436;10.942;2023-04-24T10:15:57;0.00;;;0.00;;
67828;SDS011;54626;45.436;10.942;2023-04-24T10:18:24;0.40;;;0.38;;
67828;SDS011;54626;45.436;10.942;2023-04-24T10:20:52;0.35;;;0.10;;
67828;SDS011;54626;45.436;10.942;2023-04-24T10:23:22;0.20;;;0.20;;
67828;SDS011;54626;45.436;10.942;2023-04-24T10:26:02;0.20;;;0.20;;
67828;SDS011;54626;45.436;10.942;2023-04-24T10:28:31;0.30;;;0.20;;
67828;SDS011;54626;45.436;10.942;2023-04-24T10:30:58;0.15;;;0.10;;
67828;SDS011;54626;45.436;10.942;2023-04-24T10:33:26;0.00;;;0.00;;
67828;SDS011;54626;45.436;10.942;2023-04-24T10:35:54;0.10;;;0.10;;
67828;SDS011;54626;45.436;10.942;2023-04-24T10:38:22;0.20;;;0.10;;
67828;SDS011;54626;45.436;10.942;2023-04-24T10:41:08;0.93;;;0.25;;
67828;SDS011;54626;45.436;10.942;2023-04-24T10:43:36;0.22;;;0.10;;
67828;SDS011;54626;45.436;10.942;2023-04-24T10:46:08;0.17;;;0.17;;
67828;SDS011;54626;45.436;10.942;2023-04-24T10:48:36;0.10;;;0.00;;
67828;SDS011;54626;45.436;10.942;2023-04-24T10:53:38;0.10;;;0.10;;
67828;SDS011;54626;45.436;10.942;2023-04-24T10:56:05;0.10;;;0.10;;
67828;SDS011;54626;45.436;10.942;2023-04-24T10:58:40;0.00;;;0.00;;
67828;SDS011;54626;45.436;10.942;2023-04-24T11:01:29;1.92;;;0.95;;
67828;SDS011;54626;45.436;10.942;2023-04-24T11:03:59;0.20;;;0.20;;
67828;SDS011;54626;45.436;10.942;2023-04-24T11:06:35;0.10;;;0.10;;
67828;SDS011;54626;45.436;10.942;2023-04-24T11:09:09;0.88;;;0.80;;
67828;SDS011;54626;45.436;10.942;2023-04-24T11:11:38;0.32;;;0.30;;
67828;SDS011;54626;45.436;10.942;2023-04-24T11:14:13;0.73;;;0.55;;
67828;SDS011;54626;45.436;10.942;2023-04-24T11:19:09;1.42;;;0.88;;
67828;SDS011;54626;45.436;10.942;2023-04-24T11:26:53;0.50;;;0.38;;
67828;SDS011;54626;45.436;10.942;2023-04-24T11:29:20;0.20;;;0.20;;
67828;SDS011;54626;45.436;10.942;2023-04-24T11:31:49;0.17;;;0.15;;
67828;SDS011;54626;45.436;10.942;2023-04-24T11:34:18;0.38;;;0.10;;
67828;SDS011;54626;45.436;10.942;2023-04-24T11:36:46;0.00;;;0.00;;
67828;SDS011;54626;45.436;10.942;2023-04-24T11:39:14;0.28;;;0.22;;
67828;SDS011;54626;45.436;10.942;2023-04-24T11:41:41;0.00;;;0.00;;
67828;SDS011;54626;45.436;10.942;2023-04-24T11:44:08;0.00;;;0.00;;
67828;SDS011;54626;45.436;10.942;2023-04-24T11:46:35;0.45;;;0.10;;
67828;SDS011;54626;45.436;10.942;2023-04-24T11:49:05;0.00;;;0.00;;
67828;SDS011;54626;45.436;10.942;2023-04-24T11:51:32;0.03;;;0.03;;
67828;SDS011;54626;45.436;10.942;2023-04-24T11:54:17;0.10;;;0.10;;
67828;SDS011;54626;45.436;10.942;2023-04-24T11:56:45;0.05;;;0.05;;
67828;SDS011;54626;45.436;10.942;2023-04-24T11:59:13;0.10;;;0.08;;
67828;SDS011;54626;45.436;10.942;2023-04-24T12:01:43;0.00;;;0.00;;
67828;SDS011;54626;45.436;10.942;2023-04-24T12:04:11;0.00;;;0.00;;
67828;SDS011;54626;45.436;10.942;2023-04-24T12:06:39;0.00;;;0.00;;
67828;SDS011;54626;45.436;10.942;2023-04-24T12:09:06;0.00;;;0.00;;
67828;SDS011;54626;45.436;10.942;2023-04-24T12:11:52;0.20;;;0.20;;
67828;SDS011;54626;45.436;10.942;2023-04-24T12:14:23;0.00;;;0.00;;
67828;SDS011;54626;45.436;10.942;2023-04-24T12:16:50;0.10;;;0.10;;
67828;SDS011;54626;45.436;10.942;2023-04-24T12:19:18;5.47;;;0.68;;
67828;SDS011;54626;45.436;10.942;2023-04-24T12:22:01;0.35;;;0.20;;
67828;SDS011;54626;45.436;10.942;2023-04-24T12:24:30;0.10;;;0.10;;
67828;SDS011;54626;45.436;10.942;2023-04-24T12:26:57;1.50;;;0.63;;
67828;SDS011;54626;45.436;10.942;2023-04-24T12:29:31;0.57;;;0.45;;
67828;SDS011;54626;45.436;10.942;2023-04-24T12:31:58;0.95;;;0.63;;
67828;SDS011;54626;45.436;10.942;2023-04-24T12:34:24;1.27;;;0.65;;
67828;SDS011;54626;45.436;10.942;2023-04-24T12:36:51;0.82;;;0.30;;
67828;SDS011;54626;45.436;10.942;2023-04-24T12:39:20;0.00;;;0.00;;
67828;SDS011;54626;45.436;10.942;2023-04-24T12:41:56;0.63;;;0.40;;
67828;SDS011;54626;45.436;10.942;2023-04-24T12:44:33;1.30;;;0.32;;
67828;SDS011;54626;45.436;10.942;2023-04-24T12:47:01;0.52;;;0.52;;
67828;SDS011;54626;45.436;10.942;2023-04-24T12:49:29;0.00;;;0.00;;
67828;SDS011;54626;45.436;10.942;2023-04-24T12:51:56;0.20;;;0.20;;
67828;SDS011;54626;45.436;10.942;2023-04-24T12:54:23;0.35;;;0.20;;
67828;SDS011;54626;45.436;10.942;2023-04-24T12:56:49;0.30;;;0.30;;
67828;SDS011;54626;45.436;10.942;2023-04-24T12:59:16;0.52;;;0.40;;
67828;SDS011;54626;45.436;10.942;2023-04-24T13:01:43;0.20;;;0.20;;
67828;SDS011;54626;45.436;10.942;2023-04-24T13:04:09;0.75;;;0.55;;
67828;SDS011;54626;45.436;10.942;2023-04-24T13:06:36;0.10;;;0.10;;
67828;SDS011;54626;45.436;10.942;2023-04-24T13:09:03;0.47;;;0.20;;
67828;SDS011;54626;45.436;10.942;2023-04-24T13:11:34;0.13;;;0.13;;
67828;SDS011;54626;45.436;10.942;2023-04-24T13:14:10;0.20;;;0.20;;
67828;SDS011;54626;45.436;10.942;2023-04-24T13:16:37;1.27;;;0.32;;
67828;SDS011;54626;45.436;10.942;2023-04-24T13:19:25;0.40;;;0.30;;
67828;SDS011;54626;45.436;10.942;2023-04-24T13:22:14;1.02;;;0.22;;
67828;SDS011;54626;45.436;10.942;2023-04-24T13:24:43;0.20;;;0.20;;
67828;SDS011;54626;45.436;10.942;2023-04-24T13:27:10;0.20;;;0.13;;
67828;SDS011;54626;45.436;10.942;2023-04-24T13:29:37;0.40;;;0.40;;
67828;SDS011;54626;45.436;10.942;2023-04-24T13:32:04;0.20;;;0.10;;
67828;SDS011;54626;45.436;10.942;2023-04-24T13:34:32;0.20;;;0.20;;
67828;SDS011;54626;45.436;10.942;2023-04-24T13:37:01;0.68;;;0.40;;
67828;SDS011;54626;45.436;10.942;2023-04-24T13:39:29;1.25;;;0.45;;
67828;SDS011;54626;45.436;10.942;2023-04-24T13:41:56;0.20;;;0.20;;
67828;SDS011;54626;45.436;10.942;2023-04-24T13:44:24;0.45;;;0.43;;
67828;SDS011;54626;45.436;10.942;2023-04-24T13:46:54;0.52;;;0.28;;
67828;SDS011;54626;45.436;10.942;2023-04-24T13:49:23;0.73;;;0.50;;
67828;SDS011;54626;45.436;10.942;2023-04-24T13:51:53;0.90;;;0.35;;
67828;SDS011;54626;45.436;10.942;2023-04-24T13:54:20;3.63;;;0.68;;
67828;SDS011;54626;45.436;10.942;2023-04-24T13:56:55;0.90;;;0.45;;
67828;SDS011;54626;45.436;10.942;2023-04-24T13:59:24;0.38;;;0.30;;
67828;SDS011;54626;45.436;10.942;2023-04-24T14:01:51;0.40;;;0.30;;
67828;SDS011;54626;45.436;10.942;2023-04-24T14:04:18;0.50;;;0.40;;
67828;SDS011;54626;45.436;10.942;2023-04-24T14:06:45;0.57;;;0.50;;
67828;SDS011;54626;45.436;10.942;2023-04-24T14:09:12;0.63;;;0.63;;
67828;SDS011;54626;45.436;10.942;2023-04-24T14:11:39;0.93;;;0.40;;
67828;SDS011;54626;45.436;10.942;2023-04-24T14:14:05;0.32;;;0.20;;
67828;SDS011;54626;45.436;10.942;2023-04-24T14:16:33;0.30;;;0.30;;
67828;SDS011;54626;45.436;10.942;2023-04-24T14:19:01;0.68;;;0.65;;
67828;SDS011;54626;45.436;10.942;2023-04-24T14:21:27;0.88;;;0.60;;
67828;SDS011;54626;45.436;10.942;2023-04-24T14:23:53;0.13;;;0.13;;
67828;SDS011;54626;45.436;10.942;2023-04-24T14:26:20;0.25;;;0.15;;
67828;SDS011;54626;45.436;10.942;2023-04-24T14:28:47;0.43;;;0.30;;
67828;SDS011;54626;45.436;10.942;2023-04-24T14:31:13;0.45;;;0.45;;
67828;SDS011;54626;45.436;10.942;2023-04-24T14:33:40;0.17;;;0.17;;
67828;SDS011;54626;45.436;10.942;2023-04-24T14:36:06;0.90;;;0.40;;
67828;SDS011;54626;45.436;10.942;2023-04-24T14:38:33;0.47;;;0.30;;
67828;SDS011;54626;45.436;10.942;2023-04-24T14:41:00;0.43;;;0.35;;
67828;SDS011;54626;45.436;10.942;2023-04-24T14:43:35;0.20;;;0.20;;
67828;SDS011;54626;45.436;10.942;2023-04-24T14:46:02;0.82;;;0.60;;
67828;SDS011;54626;45.436;10.942;2023-04-24T14:48:30;0.13;;;0.13;;
67828;SDS011;54626;45.436;10.942;2023-04-24T14:50:58;0.47;;;0.28;;
67828;SDS011;54626;45.436;10.942;2023-04-24T14:53:24;0.50;;;0.35;;